sensor_id;sensor_type;location;lat;lon;timestamp;temperature;humidity
8332;DHT22;4203;48.144;14.118;2022-09-03T00:01:27;10.30;99.90
8332;DHT22;4203;48.144;14.118;2022-09-03T00:04:02;10.30;99.90
8332;DHT22;4203;48.144;14.118;2022-09-03T00:06:35;10.30;99.90
8332;DHT22;4203;48.144;14.118;2022-09-03T00:09:08;10.30;99.90
8332;DHT22;4203;48.144;14.118;2022-09-03T00:11:45;10.30;99.90
8332;DHT22;4203;48.144;14.118;2022-09-03T00:14:18;10.30;99.90
8332;DHT22;4203;48.144;14.118;2022-09-03T00:16:49;10.30;99.90
8332;DHT22;4203;48.144;14.118;2022-09-03T00:19:22;10.40;99.90
8332;DHT22;4203;48.144;14.118;2022-09-03T00:21:56;10.40;99.90
8332;DHT22;4203;48.144;14.118;2022-09-03T00:24:28;10.30;99.90
8332;DHT22;4203;48.144;14.118;2022-09-03T00:27:00;10.40;99.90
8332;DHT22;4203;48.144;14.118;2022-09-03T00:29:34;10.30;99.90
8332;DHT22;4203;48.144;14.118;2022-09-03T00:32:06;10.30;99.90
8332;DHT22;4203;48.144;14.118;2022-09-03T00:34:38;10.30;99.90
8332;DHT22;4203;48.144;14.118;2022-09-03T00:37:09;10.20;99.90
8332;DHT22;4203;48.144;14.118;2022-09-03T00:39:37;10.30;99.90
8332;DHT22;4203;48.144;14.118;2022-09-03T00:45:18;10.30;99.90
8332;DHT22;4203;48.144;14.118;2022-09-03T00:47:59;10.20;99.90
8332;DHT22;4203;48.144;14.118;2022-09-03T00:50:37;10.30;99.90
8332;DHT22;4203;48.144;14.118;2022-09-03T00:53:14;10.40;99.90
8332;DHT22;4203;48.144;14.118;2022-09-03T00:55:49;10.40;99.90
8332;DHT22;4203;48.144;14.118;2022-09-03T00:58:43;10.40;99.90
8332;DHT22;4203;48.144;14.118;2022-09-03T01:01:20;10.50;99.90
8332;DHT22;4203;48.144;14.118;2022-09-03T01:03:54;10.50;99.90
8332;DHT22;4203;48.144;14.118;2022-09-03T01:06:31;10.50;99.90
8332;DHT22;4203;48.144;14.118;2022-09-03T01:09:11;10.50;99.90
8332;DHT22;4203;48.144;14.118;2022-09-03T01:11:52;10.50;99.90
8332;DHT22;4203;48.144;14.118;2022-09-03T01:14:34;10.50;99.90
8332;DHT22;4203;48.144;14.118;2022-09-03T01:17:11;10.40;99.90
8332;DHT22;4203;48.144;14.118;2022-09-03T01:20:11;10.40;99.90
8332;DHT22;4203;48.144;14.118;2022-09-03T01:23:18;10.40;99.90
8332;DHT22;4203;48.144;14.118;2022-09-03T01:25:55;10.50;99.90
8332;DHT22;4203;48.144;14.118;2022-09-03T01:28:43;10.50;99.90
8332;DHT22;4203;48.144;14.118;2022-09-03T01:31:28;10.60;99.90
8332;DHT22;4203;48.144;14.118;2022-09-03T01:34:08;10.60;99.90
8332;DHT22;4203;48.144;14.118;2022-09-03T01:36:41;10.70;99.90
8332;DHT22;4203;48.144;14.118;2022-09-03T01:39:19;10.70;99.90
8332;DHT22;4203;48.144;14.118;2022-09-03T01:41:54;10.80;99.90
8332;DHT22;4203;48.144;14.118;2022-09-03T01:47:57;10.90;99.90
8332;DHT22;4203;48.144;14.118;2022-09-03T01:50:36;11.00;99.90
8332;DHT22;4203;48.144;14.118;2022-09-03T01:53:12;11.00;99.90
8332;DHT22;4203;48.144;14.118;2022-09-03T01:55:57;11.00;99.90
8332;DHT22;4203;48.144;14.118;2022-09-03T01:58:29;11.00;99.90
8332;DHT22;4203;48.144;14.118;2022-09-03T02:01:02;11.00;99.90
8332;DHT22;4203;48.144;14.118;2022-09-03T02:03:38;10.90;99.90
8332;DHT22;4203;48.144;14.118;2022-09-03T02:06:07;10.90;99.90
8332;DHT22;4203;48.144;14.118;2022-09-03T02:08:35;10.90;99.90
8332;DHT22;4203;48.144;14.118;2022-09-03T02:11:05;10.80;99.90
8332;DHT22;4203;48.144;14.118;2022-09-03T02:13:37;10.70;99.90
8332;DHT22;4203;48.144;14.118;2022-09-03T02:16:10;10.70;99.90
8332;DHT22;4203;48.144;14.118;2022-09-03T02:18:43;10.60;99.90
8332;DHT22;4203;48.144;14.118;2022-09-03T02:21:12;10.50;99.90
8332;DHT22;4203;48.144;14.118;2022-09-03T02:23:42;10.40;99.90
8332;DHT22;4203;48.144;14.118;2022-09-03T02:26:11;10.40;99.90
8332;DHT22;4203;48.144;14.118;2022-09-03T02:28:38;10.30;99.90
8332;DHT22;4203;48.144;14.118;2022-09-03T02:31:06;10.20;99.90
8332;DHT22;4203;48.144;14.118;2022-09-03T02:33:37;10.20;99.90
8332;DHT22;4203;48.144;14.118;2022-09-03T02:36:09;10.20;99.90
8332;DHT22;4203;48.144;14.118;2022-09-03T02:38:39;10.20;99.90
8332;DHT22;4203;48.144;14.118;2022-09-03T02:41:07;10.10;99.90
8332;DHT22;4203;48.144;14.118;2022-09-03T02:43:39;10.10;99.90
8332;DHT22;4203;48.144;14.118;2022-09-03T02:46:11;10.20;99.90
8332;DHT22;4203;48.144;14.118;2022-09-03T02:48:40;10.10;99.90
8332;DHT22;4203;48.144;14.118;2022-09-03T02:51:09;10.10;99.90
8332;DHT22;4203;48.144;14.118;2022-09-03T02:53:36;10.10;99.90
8332;DHT22;4203;48.144;14.118;2022-09-03T02:56:04;10.00;99.90
8332;DHT22;4203;48.144;14.118;2022-09-03T02:58:31;10.00;99.90
8332;DHT22;4203;48.144;14.118;2022-09-03T03:00:58;10.00;99.90
8332;DHT22;4203;48.144;14.118;2022-09-03T03:03:25;9.90;99.90
8332;DHT22;4203;48.144;14.118;2022-09-03T03:05:54;9.90;99.90
8332;DHT22;4203;48.144;14.118;2022-09-03T03:08:25;9.80;99.90
8332;DHT22;4203;48.144;14.118;2022-09-03T03:10:55;9.80;99.90
8332;DHT22;4203;48.144;14.118;2022-09-03T03:13:24;9.80;99.90
8332;DHT22;4203;48.144;14.118;2022-09-03T03:15:54;9.70;99.90
8332;DHT22;4203;48.144;14.118;2022-09-03T03:18:22;9.60;99.90
8332;DHT22;4203;48.144;14.118;2022-09-03T03:20:49;9.60;99.90
8332;DHT22;4203;48.144;14.118;2022-09-03T03:23:16;9.70;99.90
8332;DHT22;4203;48.144;14.118;2022-09-03T03:25:45;9.70;99.90
8332;DHT22;4203;48.144;14.118;2022-09-03T03:28:12;9.70;99.90
8332;DHT22;4203;48.144;14.118;2022-09-03T03:30:40;9.60;99.90
8332;DHT22;4203;48.144;14.118;2022-09-03T03:33:08;9.60;99.90
8332;DHT22;4203;48.144;14.118;2022-09-03T03:35:35;9.60;99.90
8332;DHT22;4203;48.144;14.118;2022-09-03T03:38:02;9.60;99.90
8332;DHT22;4203;48.144;14.118;2022-09-03T03:40:29;9.60;99.90
8332;DHT22;4203;48.144;14.118;2022-09-03T03:42:58;9.70;99.90
8332;DHT22;4203;48.144;14.118;2022-09-03T03:45:25;9.70;99.90
8332;DHT22;4203;48.144;14.118;2022-09-03T03:47:56;9.60;99.90
8332;DHT22;4203;48.144;14.118;2022-09-03T03:50:24;9.60;99.90
8332;DHT22;4203;48.144;14.118;2022-09-03T03:52:52;9.60;99.90
8332;DHT22;4203;48.144;14.118;2022-09-03T03:55:19;9.60;99.90
8332;DHT22;4203;48.144;14.118;2022-09-03T03:57:47;9.50;99.90
8332;DHT22;4203;48.144;14.118;2022-09-03T04:00:16;9.50;99.90
8332;DHT22;4203;48.144;14.118;2022-09-03T04:02:43;9.50;99.90
8332;DHT22;4203;48.144;14.118;2022-09-03T04:05:11;9.50;99.90
8332;DHT22;4203;48.144;14.118;2022-09-03T04:07:39;9.50;99.90
8332;DHT22;4203;48.144;14.118;2022-09-03T04:10:07;9.50;99.90
8332;DHT22;4203;48.144;14.118;2022-09-03T04:12:34;9.50;99.90
8332;DHT22;4203;48.144;14.118;2022-09-03T04:15:02;9.40;99.90
8332;DHT22;4203;48.144;14.118;2022-09-03T04:17:31;9.40;99.90
8332;DHT22;4203;48.144;14.118;2022-09-03T04:19:58;9.40;99.90
8332;DHT22;4203;48.144;14.118;2022-09-03T04:22:27;9.40;99.90
8332;DHT22;4203;48.144;14.118;2022-09-03T04:24:55;9.40;99.90
8332;DHT22;4203;48.144;14.118;2022-09-03T04:27:22;9.40;99.90
8332;DHT22;4203;48.144;14.118;2022-09-03T04:29:49;9.40;99.90
8332;DHT22;4203;48.144;14.118;2022-09-03T04:32:16;9.40;99.90
8332;DHT22;4203;48.144;14.118;2022-09-03T04:35:03;9.40;99.90
8332;DHT22;4203;48.144;14.118;2022-09-03T04:37:31;9.40;99.90
8332;DHT22;4203;48.144;14.118;2022-09-03T04:39:58;9.40;99.90
8332;DHT22;4203;48.144;14.118;2022-09-03T04:42:27;9.40;99.90
8332;DHT22;4203;48.144;14.118;2022-09-03T04:44:54;9.30;99.90
8332;DHT22;4203;48.144;14.118;2022-09-03T04:47:21;9.40;99.90
8332;DHT22;4203;48.144;14.118;2022-09-03T04:49:48;9.40;99.90
8332;DHT22;4203;48.144;14.118;2022-09-03T04:52:17;9.40;99.90
8332;DHT22;4203;48.144;14.118;2022-09-03T04:54:44;9.40;99.90
8332;DHT22;4203;48.144;14.118;2022-09-03T04:57:11;9.40;99.90
8332;DHT22;4203;48.144;14.118;2022-09-03T04:59:38;9.50;99.90
8332;DHT22;4203;48.144;14.118;2022-09-03T05:02:07;9.60;99.90
8332;DHT22;4203;48.144;14.118;2022-09-03T05:04:34;9.60;99.90
8332;DHT22;4203;48.144;14.118;2022-09-03T05:07:01;9.70;99.90
8332;DHT22;4203;48.144;14.118;2022-09-03T05:09:30;9.80;99.90
8332;DHT22;4203;48.144;14.118;2022-09-03T05:11:57;10.00;99.90
8332;DHT22;4203;48.144;14.118;2022-09-03T05:14:24;10.00;99.90
8332;DHT22;4203;48.144;14.118;2022-09-03T05:16:52;10.10;99.90
8332;DHT22;4203;48.144;14.118;2022-09-03T05:19:19;10.30;99.90
8332;DHT22;4203;48.144;14.118;2022-09-03T05:21:46;10.40;99.90
8332;DHT22;4203;48.144;14.118;2022-09-03T05:24:13;10.60;99.90
8332;DHT22;4203;48.144;14.118;2022-09-03T05:26:42;10.70;99.90
8332;DHT22;4203;48.144;14.118;2022-09-03T05:29:09;10.90;99.90
8332;DHT22;4203;48.144;14.118;2022-09-03T05:31:38;11.10;99.90
8332;DHT22;4203;48.144;14.118;2022-09-03T05:34:05;11.30;99.90
8332;DHT22;4203;48.144;14.118;2022-09-03T05:36:35;11.50;99.90
8332;DHT22;4203;48.144;14.118;2022-09-03T05:39:03;11.70;99.90
8332;DHT22;4203;48.144;14.118;2022-09-03T05:41:30;11.80;99.90
8332;DHT22;4203;48.144;14.118;2022-09-03T05:44:00;11.90;99.90
8332;DHT22;4203;48.144;14.118;2022-09-03T05:46:29;12.10;99.90
8332;DHT22;4203;48.144;14.118;2022-09-03T05:48:57;12.30;99.90
8332;DHT22;4203;48.144;14.118;2022-09-03T05:51:25;12.50;99.90
8332;DHT22;4203;48.144;14.118;2022-09-03T05:53:53;12.80;99.90
8332;DHT22;4203;48.144;14.118;2022-09-03T05:56:22;13.00;99.90
8332;DHT22;4203;48.144;14.118;2022-09-03T05:58:51;13.20;99.90
8332;DHT22;4203;48.144;14.118;2022-09-03T06:01:21;13.50;99.90
8332;DHT22;4203;48.144;14.118;2022-09-03T06:03:53;13.70;99.90
8332;DHT22;4203;48.144;14.118;2022-09-03T06:06:22;14.00;99.90
8332;DHT22;4203;48.144;14.118;2022-09-03T06:08:50;14.10;99.90
8332;DHT22;4203;48.144;14.118;2022-09-03T06:11:18;14.20;99.90
8332;DHT22;4203;48.144;14.118;2022-09-03T06:13:46;14.30;99.90
8332;DHT22;4203;48.144;14.118;2022-09-03T06:16:14;14.20;99.90
8332;DHT22;4203;48.144;14.118;2022-09-03T06:18:42;14.20;99.90
8332;DHT22;4203;48.144;14.118;2022-09-03T06:21:09;14.10;99.90
8332;DHT22;4203;48.144;14.118;2022-09-03T06:23:36;14.10;99.90
8332;DHT22;4203;48.144;14.118;2022-09-03T06:26:05;14.10;99.90
8332;DHT22;4203;48.144;14.118;2022-09-03T06:28:34;14.20;99.90
8332;DHT22;4203;48.144;14.118;2022-09-03T06:31:04;14.30;99.90
8332;DHT22;4203;48.144;14.118;2022-09-03T06:33:33;14.40;99.90
8332;DHT22;4203;48.144;14.118;2022-09-03T06:36:04;14.50;99.90
8332;DHT22;4203;48.144;14.118;2022-09-03T06:38:33;14.60;99.90
8332;DHT22;4203;48.144;14.118;2022-09-03T06:41:02;14.90;99.90
8332;DHT22;4203;48.144;14.118;2022-09-03T06:43:31;15.20;99.90
8332;DHT22;4203;48.144;14.118;2022-09-03T06:46:01;15.50;99.90
8332;DHT22;4203;48.144;14.118;2022-09-03T06:48:30;15.60;99.90
8332;DHT22;4203;48.144;14.118;2022-09-03T06:50:59;15.60;99.90
8332;DHT22;4203;48.144;14.118;2022-09-03T06:53:30;15.60;99.90
8332;DHT22;4203;48.144;14.118;2022-09-03T06:55:59;15.50;99.90
8332;DHT22;4203;48.144;14.118;2022-09-03T06:58:28;15.30;99.90
8332;DHT22;4203;48.144;14.118;2022-09-03T07:01:01;15.20;99.90
8332;DHT22;4203;48.144;14.118;2022-09-03T07:03:28;15.20;99.90
8332;DHT22;4203;48.144;14.118;2022-09-03T07:05:59;15.10;99.90
8332;DHT22;4203;48.144;14.118;2022-09-03T07:08:28;15.00;99.90
8332;DHT22;4203;48.144;14.118;2022-09-03T07:10:57;15.00;99.90
8332;DHT22;4203;48.144;14.118;2022-09-03T07:13:25;15.00;99.90
8332;DHT22;4203;48.144;14.118;2022-09-03T07:15:58;15.10;99.90
8332;DHT22;4203;48.144;14.118;2022-09-03T07:18:26;15.20;99.90
8332;DHT22;4203;48.144;14.118;2022-09-03T07:20:58;15.30;99.90
8332;DHT22;4203;48.144;14.118;2022-09-03T07:23:28;15.50;99.90
8332;DHT22;4203;48.144;14.118;2022-09-03T07:26:01;15.60;99.90
8332;DHT22;4203;48.144;14.118;2022-09-03T07:28:30;15.70;99.90
8332;DHT22;4203;48.144;14.118;2022-09-03T07:31:02;15.70;99.90
8332;DHT22;4203;48.144;14.118;2022-09-03T07:33:30;15.80;99.90
8332;DHT22;4203;48.144;14.118;2022-09-03T07:36:02;16.00;99.90
8332;DHT22;4203;48.144;14.118;2022-09-03T07:38:32;16.30;99.90
8332;DHT22;4203;48.144;14.118;2022-09-03T07:41:00;16.60;99.90
8332;DHT22;4203;48.144;14.118;2022-09-03T07:43:28;17.00;99.90
8332;DHT22;4203;48.144;14.118;2022-09-03T07:45:56;17.50;99.90
8332;DHT22;4203;48.144;14.118;2022-09-03T07:48:23;17.90;99.90
8332;DHT22;4203;48.144;14.118;2022-09-03T07:50:51;18.40;99.90
8332;DHT22;4203;48.144;14.118;2022-09-03T07:53:19;18.70;99.90
8332;DHT22;4203;48.144;14.118;2022-09-03T07:55:47;19.00;99.90
8332;DHT22;4203;48.144;14.118;2022-09-03T07:58:14;19.30;99.90
8332;DHT22;4203;48.144;14.118;2022-09-03T08:00:42;19.50;99.90
8332;DHT22;4203;48.144;14.118;2022-09-03T08:03:09;19.80;99.90
8332;DHT22;4203;48.144;14.118;2022-09-03T08:05:37;20.00;99.90
8332;DHT22;4203;48.144;14.118;2022-09-03T08:08:05;20.40;99.90
8332;DHT22;4203;48.144;14.118;2022-09-03T08:10:34;20.70;99.90
8332;DHT22;4203;48.144;14.118;2022-09-03T08:13:05;21.00;99.90
8332;DHT22;4203;48.144;14.118;2022-09-03T08:15:32;21.10;99.90
8332;DHT22;4203;48.144;14.118;2022-09-03T08:17:59;21.20;99.90
8332;DHT22;4203;48.144;14.118;2022-09-03T08:20:27;21.10;99.90
8332;DHT22;4203;48.144;14.118;2022-09-03T08:23:00;20.80;99.90
8332;DHT22;4203;48.144;14.118;2022-09-03T08:25:27;20.70;99.90
8332;DHT22;4203;48.144;14.118;2022-09-03T08:27:57;20.70;99.90
8332;DHT22;4203;48.144;14.118;2022-09-03T08:30:26;21.00;99.90
8332;DHT22;4203;48.144;14.118;2022-09-03T08:32:54;21.20;99.90
8332;DHT22;4203;48.144;14.118;2022-09-03T08:35:21;21.60;99.90
8332;DHT22;4203;48.144;14.118;2022-09-03T08:37:49;22.00;99.90
8332;DHT22;4203;48.144;14.118;2022-09-03T08:40:19;22.40;99.90
8332;DHT22;4203;48.144;14.118;2022-09-03T08:42:57;22.70;99.90
8332;DHT22;4203;48.144;14.118;2022-09-03T08:45:33;23.00;99.90
8332;DHT22;4203;48.144;14.118;2022-09-03T08:48:04;23.00;99.90
8332;DHT22;4203;48.144;14.118;2022-09-03T08:50:37;23.00;99.90
8332;DHT22;4203;48.144;14.118;2022-09-03T08:53:11;23.20;99.90
8332;DHT22;4203;48.144;14.118;2022-09-03T08:55:49;23.50;99.90
8332;DHT22;4203;48.144;14.118;2022-09-03T08:58:18;23.80;99.90
8332;DHT22;4203;48.144;14.118;2022-09-03T09:00:50;24.00;99.90
8332;DHT22;4203;48.144;14.118;2022-09-03T09:06:20;23.90;99.90
8332;DHT22;4203;48.144;14.118;2022-09-03T09:08:58;24.20;99.90
8332;DHT22;4203;48.144;14.118;2022-09-03T09:11:39;24.50;99.90
8332;DHT22;4203;48.144;14.118;2022-09-03T09:14:14;24.70;99.90
8332;DHT22;4203;48.144;14.118;2022-09-03T09:16:49;24.90;99.90
8332;DHT22;4203;48.144;14.118;2022-09-03T09:19:30;25.00;99.90
8332;DHT22;4203;48.144;14.118;2022-09-03T09:22:04;25.20;99.90
8332;DHT22;4203;48.144;14.118;2022-09-03T09:24:38;25.40;99.90
8332;DHT22;4203;48.144;14.118;2022-09-03T09:27:07;25.60;99.90
8332;DHT22;4203;48.144;14.118;2022-09-03T09:29:36;25.80;99.90
8332;DHT22;4203;48.144;14.118;2022-09-03T09:32:08;25.90;99.90
8332;DHT22;4203;48.144;14.118;2022-09-03T09:34:38;25.90;99.90
8332;DHT22;4203;48.144;14.118;2022-09-03T09:37:09;25.80;99.90
8332;DHT22;4203;48.144;14.118;2022-09-03T09:39:38;25.70;99.90
8332;DHT22;4203;48.144;14.118;2022-09-03T09:42:07;25.30;99.90
8332;DHT22;4203;48.144;14.118;2022-09-03T09:44:36;24.50;99.90
8332;DHT22;4203;48.144;14.118;2022-09-03T09:47:07;24.50;99.90
8332;DHT22;4203;48.144;14.118;2022-09-03T09:49:50;24.60;99.90
8332;DHT22;4203;48.144;14.118;2022-09-03T09:52:18;24.70;99.90
8332;DHT22;4203;48.144;14.118;2022-09-03T09:54:46;25.00;99.90
8332;DHT22;4203;48.144;14.118;2022-09-03T09:57:16;25.60;99.90
8332;DHT22;4203;48.144;14.118;2022-09-03T09:59:44;26.00;99.90
8332;DHT22;4203;48.144;14.118;2022-09-03T10:02:19;26.50;99.90
8332;DHT22;4203;48.144;14.118;2022-09-03T10:04:52;26.70;99.90
8332;DHT22;4203;48.144;14.118;2022-09-03T10:07:25;26.90;99.90
8332;DHT22;4203;48.144;14.118;2022-09-03T10:10:04;27.10;99.90
8332;DHT22;4203;48.144;14.118;2022-09-03T10:12:35;27.30;99.90
8332;DHT22;4203;48.144;14.118;2022-09-03T10:15:21;27.30;99.70
8332;DHT22;4203;48.144;14.118;2022-09-03T10:17:56;27.20;99.90
8332;DHT22;4203;48.144;14.118;2022-09-03T10:20:32;27.40;99.90
8332;DHT22;4203;48.144;14.118;2022-09-03T10:23:09;27.80;99.90
8332;DHT22;4203;48.144;14.118;2022-09-03T10:25:41;27.80;99.90
8332;DHT22;4203;48.144;14.118;2022-09-03T10:28:15;27.80;99.90
8332;DHT22;4203;48.144;14.118;2022-09-03T10:30:59;27.70;99.90
8332;DHT22;4203;48.144;14.118;2022-09-03T10:33:33;27.80;99.90
8332;DHT22;4203;48.144;14.118;2022-09-03T10:36:10;27.90;99.90
8332;DHT22;4203;48.144;14.118;2022-09-03T10:38:41;28.00;99.90
8332;DHT22;4203;48.144;14.118;2022-09-03T10:41:19;28.10;99.90
8332;DHT22;4203;48.144;14.118;2022-09-03T10:44:11;28.20;99.90
8332;DHT22;4203;48.144;14.118;2022-09-03T10:46:51;28.40;99.90
8332;DHT22;4203;48.144;14.118;2022-09-03T10:49:38;28.40;99.90
8332;DHT22;4203;48.144;14.118;2022-09-03T10:52:16;28.10;99.90
8332;DHT22;4203;48.144;14.118;2022-09-03T10:54:54;28.20;99.90
8332;DHT22;4203;48.144;14.118;2022-09-03T10:57:32;28.50;99.90
8332;DHT22;4203;48.144;14.118;2022-09-03T11:00:05;28.80;98.60
8332;DHT22;4203;48.144;14.118;2022-09-03T11:03:15;28.60;99.90
8332;DHT22;4203;48.144;14.118;2022-09-03T11:05:55;28.60;99.90
8332;DHT22;4203;48.144;14.118;2022-09-03T11:08:27;28.60;98.10
8332;DHT22;4203;48.144;14.118;2022-09-03T11:11:11;28.50;99.50
8332;DHT22;4203;48.144;14.118;2022-09-03T11:13:45;27.90;99.90
8332;DHT22;4203;48.144;14.118;2022-09-03T11:16:16;27.90;99.90
8332;DHT22;4203;48.144;14.118;2022-09-03T11:18:49;28.20;99.90
8332;DHT22;4203;48.144;14.118;2022-09-03T11:21:22;28.50;99.90
8332;DHT22;4203;48.144;14.118;2022-09-03T11:23:57;28.90;99.90
8332;DHT22;4203;48.144;14.118;2022-09-03T11:26:29;29.20;99.80
8332;DHT22;4203;48.144;14.118;2022-09-03T11:29:00;29.50;99.90
8332;DHT22;4203;48.144;14.118;2022-09-03T11:31:39;29.80;97.50
8332;DHT22;4203;48.144;14.118;2022-09-03T11:34:24;29.80;99.90
8332;DHT22;4203;48.144;14.118;2022-09-03T11:37:04;30.10;99.90
8332;DHT22;4203;48.144;14.118;2022-09-03T11:39:34;30.10;99.60
8332;DHT22;4203;48.144;14.118;2022-09-03T11:42:04;30.10;98.90
8332;DHT22;4203;48.144;14.118;2022-09-03T11:44:36;29.80;95.70
8332;DHT22;4203;48.144;14.118;2022-09-03T11:47:13;29.10;97.50
8332;DHT22;4203;48.144;14.118;2022-09-03T11:49:45;28.80;99.90
8332;DHT22;4203;48.144;14.118;2022-09-03T11:52:26;29.10;99.90
8332;DHT22;4203;48.144;14.118;2022-09-03T11:54:54;29.30;98.00
8332;DHT22;4203;48.144;14.118;2022-09-03T11:57:26;29.60;96.00
8332;DHT22;4203;48.144;14.118;2022-09-03T12:00:05;29.40;97.20
8332;DHT22;4203;48.144;14.118;2022-09-03T12:02:36;29.80;99.80
8332;DHT22;4203;48.144;14.118;2022-09-03T12:05:16;30.20;96.00
8332;DHT22;4203;48.144;14.118;2022-09-03T12:08:06;30.40;99.90
8332;DHT22;4203;48.144;14.118;2022-09-03T12:10:53;30.60;98.30
8332;DHT22;4203;48.144;14.118;2022-09-03T12:13:47;30.50;99.90
8332;DHT22;4203;48.144;14.118;2022-09-03T12:16:29;30.30;96.40
8332;DHT22;4203;48.144;14.118;2022-09-03T12:19:05;29.70;98.80
8332;DHT22;4203;48.144;14.118;2022-09-03T12:21:37;29.50;99.90
8332;DHT22;4203;48.144;14.118;2022-09-03T12:24:07;29.60;97.60
8332;DHT22;4203;48.144;14.118;2022-09-03T12:26:39;29.50;98.70
8332;DHT22;4203;48.144;14.118;2022-09-03T12:29:19;29.40;99.90
8332;DHT22;4203;48.144;14.118;2022-09-03T12:31:48;29.50;99.90
8332;DHT22;4203;48.144;14.118;2022-09-03T12:34:18;30.00;99.90
8332;DHT22;4203;48.144;14.118;2022-09-03T12:36:47;30.00;94.50
8332;DHT22;4203;48.144;14.118;2022-09-03T12:39:19;29.60;99.90
8332;DHT22;4203;48.144;14.118;2022-09-03T12:42:11;29.80;99.90
8332;DHT22;4203;48.144;14.118;2022-09-03T12:44:41;30.20;98.60
8332;DHT22;4203;48.144;14.118;2022-09-03T12:47:10;30.10;98.10
8332;DHT22;4203;48.144;14.118;2022-09-03T12:49:40;29.70;96.60
8332;DHT22;4203;48.144;14.118;2022-09-03T12:52:13;29.20;97.90
8332;DHT22;4203;48.144;14.118;2022-09-03T12:54:50;28.90;97.60
8332;DHT22;4203;48.144;14.118;2022-09-03T12:57:22;28.60;99.20
8332;DHT22;4203;48.144;14.118;2022-09-03T12:59:54;28.30;95.40
8332;DHT22;4203;48.144;14.118;2022-09-03T13:02:27;27.60;96.20
8332;DHT22;4203;48.144;14.118;2022-09-03T13:05:10;27.50;99.90
8332;DHT22;4203;48.144;14.118;2022-09-03T13:07:44;27.60;99.90
8332;DHT22;4203;48.144;14.118;2022-09-03T13:10:24;27.80;99.80
8332;DHT22;4203;48.144;14.118;2022-09-03T13:12:58;28.10;98.10
8332;DHT22;4203;48.144;14.118;2022-09-03T13:15:27;28.60;99.90
8332;DHT22;4203;48.144;14.118;2022-09-03T13:18:18;28.90;97.00
8332;DHT22;4203;48.144;14.118;2022-09-03T13:20:59;28.80;97.20
8332;DHT22;4203;48.144;14.118;2022-09-03T13:23:38;28.80;99.50
8332;DHT22;4203;48.144;14.118;2022-09-03T13:26:21;29.00;98.40
8332;DHT22;4203;48.144;14.118;2022-09-03T13:29:04;29.50;99.90
8332;DHT22;4203;48.144;14.118;2022-09-03T13:31:42;30.00;98.00
8332;DHT22;4203;48.144;14.118;2022-09-03T13:34:18;30.50;97.30
8332;DHT22;4203;48.144;14.118;2022-09-03T13:36:50;30.70;98.30
8332;DHT22;4203;48.144;14.118;2022-09-03T13:39:23;31.00;96.70
8332;DHT22;4203;48.144;14.118;2022-09-03T13:41:56;30.70;95.90
8332;DHT22;4203;48.144;14.118;2022-09-03T13:44:37;30.30;97.70
8332;DHT22;4203;48.144;14.118;2022-09-03T13:47:11;30.20;97.90
8332;DHT22;4203;48.144;14.118;2022-09-03T13:49:50;30.30;98.40
8332;DHT22;4203;48.144;14.118;2022-09-03T13:52:39;30.00;96.10
8332;DHT22;4203;48.144;14.118;2022-09-03T13:55:11;29.30;96.20
8332;DHT22;4203;48.144;14.118;2022-09-03T13:57:46;28.80;97.40
8332;DHT22;4203;48.144;14.118;2022-09-03T14:00:22;28.30;97.60
8332;DHT22;4203;48.144;14.118;2022-09-03T14:02:57;27.90;97.80
8332;DHT22;4203;48.144;14.118;2022-09-03T14:05:46;27.60;98.70
8332;DHT22;4203;48.144;14.118;2022-09-03T14:08:24;27.20;99.80
8332;DHT22;4203;48.144;14.118;2022-09-03T14:10:57;26.90;99.90
8332;DHT22;4203;48.144;14.118;2022-09-03T14:13:37;26.80;99.90
8332;DHT22;4203;48.144;14.118;2022-09-03T14:16:12;26.70;99.90
8332;DHT22;4203;48.144;14.118;2022-09-03T14:18:44;26.90;99.90
8332;DHT22;4203;48.144;14.118;2022-09-03T14:21:20;27.20;99.90
8332;DHT22;4203;48.144;14.118;2022-09-03T14:23:58;27.60;99.90
8332;DHT22;4203;48.144;14.118;2022-09-03T14:26:29;28.10;99.90
8332;DHT22;4203;48.144;14.118;2022-09-03T14:28:58;28.40;99.00
8332;DHT22;4203;48.144;14.118;2022-09-03T14:31:49;28.30;97.90
8332;DHT22;4203;48.144;14.118;2022-09-03T14:34:30;28.20;99.90
8332;DHT22;4203;48.144;14.118;2022-09-03T14:37:06;28.20;97.30
8332;DHT22;4203;48.144;14.118;2022-09-03T14:39:46;28.10;99.30
8332;DHT22;4203;48.144;14.118;2022-09-03T14:42:40;28.10;99.40
8332;DHT22;4203;48.144;14.118;2022-09-03T14:51:17;27.10;98.50
8332;DHT22;4203;48.144;14.118;2022-09-03T14:56:48;26.80;98.70
8332;DHT22;4203;48.144;14.118;2022-09-03T14:59:38;26.60;99.40
8332;DHT22;4203;48.144;14.118;2022-09-03T15:02:36;26.30;99.50
8332;DHT22;4203;48.144;14.118;2022-09-03T15:05:14;26.00;99.20
8332;DHT22;4203;48.144;14.118;2022-09-03T15:07:44;25.70;99.30
8332;DHT22;4203;48.144;14.118;2022-09-03T15:10:23;25.40;99.90
8332;DHT22;4203;48.144;14.118;2022-09-03T15:12:56;25.20;99.90
8332;DHT22;4203;48.144;14.118;2022-09-03T15:15:29;25.10;99.90
8332;DHT22;4203;48.144;14.118;2022-09-03T15:18:10;24.90;99.90
8332;DHT22;4203;48.144;14.118;2022-09-03T15:20:47;24.70;99.90
8332;DHT22;4203;48.144;14.118;2022-09-03T15:23:46;24.70;99.90
8332;DHT22;4203;48.144;14.118;2022-09-03T15:26:40;24.60;99.90
8332;DHT22;4203;48.144;14.118;2022-09-03T15:29:22;24.50;99.90
8332;DHT22;4203;48.144;14.118;2022-09-03T15:31:58;24.50;99.90
8332;DHT22;4203;48.144;14.118;2022-09-03T15:34:46;24.40;99.90
8332;DHT22;4203;48.144;14.118;2022-09-03T15:37:18;24.30;99.90
8332;DHT22;4203;48.144;14.118;2022-09-03T15:39:56;24.20;99.90
8332;DHT22;4203;48.144;14.118;2022-09-03T15:42:27;24.10;99.90
8332;DHT22;4203;48.144;14.118;2022-09-03T15:45:05;24.00;99.90
8332;DHT22;4203;48.144;14.118;2022-09-03T15:47:46;24.00;99.90
8332;DHT22;4203;48.144;14.118;2022-09-03T15:50:28;24.00;99.90
8332;DHT22;4203;48.144;14.118;2022-09-03T15:53:02;23.90;99.90
8332;DHT22;4203;48.144;14.118;2022-09-03T15:55:33;23.90;99.90
8332;DHT22;4203;48.144;14.118;2022-09-03T15:58:09;23.90;99.90
8332;DHT22;4203;48.144;14.118;2022-09-03T16:00:52;23.90;99.90
8332;DHT22;4203;48.144;14.118;2022-09-03T16:03:33;23.90;99.90
8332;DHT22;4203;48.144;14.118;2022-09-03T16:06:06;23.80;99.90
8332;DHT22;4203;48.144;14.118;2022-09-03T16:08:45;23.80;99.90
8332;DHT22;4203;48.144;14.118;2022-09-03T16:11:20;23.80;99.90
8332;DHT22;4203;48.144;14.118;2022-09-03T16:14:01;23.80;99.90
8332;DHT22;4203;48.144;14.118;2022-09-03T16:16:44;23.80;99.90
8332;DHT22;4203;48.144;14.118;2022-09-03T16:19:16;23.70;99.90
8332;DHT22;4203;48.144;14.118;2022-09-03T16:21:48;23.60;99.90
8332;DHT22;4203;48.144;14.118;2022-09-03T16:24:21;23.50;99.90
8332;DHT22;4203;48.144;14.118;2022-09-03T16:26:52;23.30;99.90
8332;DHT22;4203;48.144;14.118;2022-09-03T16:29:26;23.20;99.90
8332;DHT22;4203;48.144;14.118;2022-09-03T16:32:11;23.00;99.90
8332;DHT22;4203;48.144;14.118;2022-09-03T16:34:50;22.90;99.90
8332;DHT22;4203;48.144;14.118;2022-09-03T16:37:28;22.70;99.90
8332;DHT22;4203;48.144;14.118;2022-09-03T16:40:06;22.60;99.90
8332;DHT22;4203;48.144;14.118;2022-09-03T16:42:40;22.50;99.90
8332;DHT22;4203;48.144;14.118;2022-09-03T16:45:18;22.40;99.90